createdAt,value
2023-01-04T00:00:06.812Z,0.9
2023-01-04T00:01:05.785Z,0.9
2023-01-04T00:02:06.371Z,1
2023-01-04T00:03:06.845Z,0.9
2023-01-04T00:04:06.092Z,1
2023-01-04T00:05:06.624Z,1
2023-01-04T00:06:06.518Z,1
2023-01-04T00:07:05.675Z,1
2023-01-04T00:08:06.571Z,1
2023-01-04T00:09:05.656Z,1
2023-01-04T00:10:06.732Z,1
2023-01-04T00:11:05.848Z,1
2023-01-04T00:12:06.152Z,1
2023-01-04T00:13:06.328Z,1
2023-01-04T00:14:06.658Z,0
2023-01-04T00:15:05.852Z,0
2023-01-04T00:16:12.166Z,1
2023-01-04T00:17:05.928Z,1
2023-01-04T00:18:04.946Z,1
2023-01-04T00:19:06.147Z,1
2023-01-04T00:20:06.707Z,1
2023-01-04T00:21:05.752Z,1
2023-01-04T00:22:06.188Z,1
2023-01-04T00:23:06.550Z,1.1
2023-01-04T00:24:06.014Z,1
2023-01-04T00:25:06.294Z,1
2023-01-04T00:26:06.657Z,1.1
2023-01-04T00:27:05.904Z,0
2023-01-04T00:28:05.829Z,1.1
2023-01-04T00:29:06.056Z,1.1
2023-01-04T00:30:05.276Z,1.1
2023-01-04T00:31:05.015Z,1.1
2023-01-04T00:32:05.739Z,1.1
2023-01-04T00:33:05.773Z,1.1
2023-01-04T00:34:05.784Z,1.1
2023-01-04T00:35:06.048Z,1.1
2023-01-04T00:36:05.937Z,1.1
2023-01-04T00:37:06.046Z,1.1
2023-01-04T00:38:06.162Z,1.1
2023-01-04T00:39:06.562Z,1.1
2023-01-04T00:40:06.563Z,1
2023-01-04T00:41:06.381Z,1
2023-01-04T00:42:06.365Z,1.1
2023-01-04T00:43:06.304Z,1.1
2023-01-04T00:44:05.181Z,1
2023-01-04T00:45:06.542Z,1
2023-01-04T00:46:06.424Z,1
2023-01-04T00:47:06.677Z,1.1
2023-01-04T00:48:05.551Z,1.1
2023-01-04T00:49:05.928Z,1.1
2023-01-04T00:50:06.302Z,1.1
2023-01-04T00:51:05.806Z,1.1
2023-01-04T00:52:06.394Z,1.1
2023-01-04T00:53:06.655Z,1.1
2023-01-04T00:54:06.664Z,1
2023-01-04T00:55:05.687Z,1.1
2023-01-04T00:56:06.084Z,1.1
2023-01-04T00:57:06.551Z,1
2023-01-04T00:58:05.753Z,1.1
2023-01-04T00:59:05.763Z,1.1
2023-01-04T01:00:05.641Z,1
2023-01-04T01:01:05.783Z,0
2023-01-04T01:02:06.402Z,1.1
2023-01-04T01:03:07.231Z,1.1
2023-01-04T01:04:06.439Z,1.1
2023-01-04T01:05:06.353Z,1.1
2023-01-04T01:06:05.835Z,1.1
2023-01-04T01:07:06.245Z,1.1
2023-01-04T01:08:06.525Z,1.1
2023-01-04T01:09:05.885Z,1.1
2023-01-04T01:10:06.153Z,1.1
2023-01-04T01:11:06.380Z,1.1
2023-01-04T01:12:05.699Z,1.1
2023-01-04T01:13:06.075Z,1.1
2023-01-04T01:14:05.803Z,1.1
2023-01-04T01:15:05.959Z,1.1
2023-01-04T01:16:06.746Z,1.1
2023-01-04T01:17:06.308Z,1.1
2023-01-04T01:18:05.752Z,1.1
2023-01-04T01:19:05.946Z,1.1
2023-01-04T01:20:06.507Z,1
2023-01-04T01:21:05.194Z,0
2023-01-04T01:22:06.516Z,1
2023-01-04T01:23:06.630Z,1
2023-01-04T01:24:05.956Z,0
2023-01-04T01:25:05.939Z,1
2023-01-04T01:26:06.565Z,1
2023-01-04T01:27:06.494Z,1
2023-01-04T01:28:06.219Z,1
2023-01-04T01:29:06.335Z,1
2023-01-04T01:30:05.869Z,1
2023-01-04T01:31:12.582Z,1.1
2023-01-04T01:32:06.643Z,1.1
2023-01-04T01:33:05.736Z,1.1
2023-01-04T01:34:06.318Z,1.1
2023-01-04T01:35:06.599Z,1
2023-01-04T01:36:05.722Z,1.1
2023-01-04T01:37:05.100Z,1
2023-01-04T01:38:06.151Z,1
2023-01-04T01:39:06.507Z,1
2023-01-04T01:40:05.824Z,1
2023-01-04T01:41:06.725Z,1
2023-01-04T01:42:06.123Z,1
2023-01-04T01:43:06.047Z,0
2023-01-04T01:44:06.404Z,1
2023-01-04T01:45:05.634Z,1
2023-01-04T01:46:06.091Z,1
2023-01-04T01:47:06.321Z,1
2023-01-04T01:48:05.717Z,1
2023-01-04T01:49:06.472Z,1
2023-01-04T01:50:06.213Z,1
2023-01-04T01:51:06.424Z,1
2023-01-04T01:52:05.711Z,1
2023-01-04T01:53:05.734Z,0.9
2023-01-04T01:54:06.158Z,1
2023-01-04T01:55:05.855Z,0.9
2023-01-04T01:56:06.366Z,0.9
2023-01-04T01:57:05.665Z,0.9
2023-01-04T01:58:06.531Z,0.9
2023-01-04T01:59:05.819Z,0.9
2023-01-04T02:00:06.430Z,0
2023-01-04T02:01:06.495Z,0.9
2023-01-04T02:02:06.739Z,0.9
2023-01-04T02:03:06.540Z,0
2023-01-04T02:04:06.296Z,0.9
2023-01-04T02:05:05.695Z,0.9
2023-01-04T02:06:06.210Z,0.8
2023-01-04T02:07:06.025Z,0.8
2023-01-04T02:08:06.459Z,0.8
2023-01-04T02:09:06.495Z,0.8
2023-01-04T02:10:05.867Z,0.8
2023-01-04T02:11:06.025Z,0
2023-01-04T02:12:06.153Z,0.8
2023-01-04T02:13:06.264Z,0
2023-01-04T02:14:06.568Z,0.8
2023-01-04T02:15:06.456Z,0.8
2023-01-04T02:16:06.804Z,0.8
2023-01-04T02:17:06.664Z,0.8
2023-01-04T02:18:05.903Z,0.8
2023-01-04T02:19:06.240Z,0.8
2023-01-04T02:20:05.832Z,0.8
2023-01-04T02:21:06.052Z,0.8
2023-01-04T02:22:06.340Z,0.8
2023-01-04T02:23:06.714Z,0
2023-01-04T02:24:06.302Z,0.8
2023-01-04T02:25:05.799Z,0.8
2023-01-04T02:26:06.160Z,0.8
2023-01-04T02:27:06.277Z,0.8
2023-01-04T02:28:06.166Z,0.8
2023-01-04T02:29:06.387Z,0.8
2023-01-04T02:30:06.086Z,0.8
2023-01-04T02:31:06.891Z,0.8
2023-01-04T02:32:06.279Z,0.7
2023-01-04T02:33:05.910Z,0.8
2023-01-04T02:34:06.253Z,0.8
2023-01-04T02:35:05.794Z,0.8
2023-01-04T02:36:06.030Z,0.8
2023-01-04T02:37:06.137Z,0.7
2023-01-04T02:38:05.453Z,0.7
2023-01-04T02:39:05.660Z,0.7
2023-01-04T02:40:06.210Z,0.7
2023-01-04T02:41:06.681Z,0.7
2023-01-04T02:42:05.737Z,0.7
2023-01-04T02:43:07.527Z,0.7
2023-01-04T02:44:06.136Z,0.7
2023-01-04T02:45:06.395Z,0.7
2023-01-04T02:46:06.731Z,0.6
2023-01-04T02:47:06.993Z,0.6
2023-01-04T02:48:05.938Z,0.7
2023-01-04T02:49:06.375Z,0.6
2023-01-04T02:50:09.630Z,0.6
2023-01-04T02:51:05.971Z,0.6
2023-01-04T02:52:05.625Z,0.6
2023-01-04T02:53:05.427Z,0.6
2023-01-04T02:54:06.214Z,0.7
2023-01-04T02:55:06.505Z,0.6
2023-01-04T02:56:05.749Z,0.7
2023-01-04T02:57:10.124Z,0.7
2023-01-04T02:58:06.397Z,0.6
2023-01-04T02:59:06.054Z,0.6
2023-01-04T03:00:05.700Z,0.6
2023-01-04T03:01:06.277Z,0.6
2023-01-04T03:02:06.948Z,0.6
2023-01-04T03:03:06.489Z,0.6
2023-01-04T03:04:06.208Z,0.6
2023-01-04T03:05:05.108Z,0.6
2023-01-04T03:06:06.243Z,0.6
2023-01-04T03:07:05.626Z,0.6
2023-01-04T03:08:06.582Z,0.6
2023-01-04T03:09:05.865Z,0.6
2023-01-04T03:10:06.188Z,0.6
2023-01-04T03:11:05.776Z,0
2023-01-04T03:12:05.967Z,0.5
2023-01-04T03:13:06.056Z,0.5
2023-01-04T03:14:35.923Z,0.5
2023-01-04T03:15:06.403Z,0.5
2023-01-04T03:16:06.217Z,0.5
2023-01-04T03:17:06.364Z,0.5
2023-01-04T03:18:05.572Z,0.5
2023-01-04T03:19:06.087Z,0.5
2023-01-04T03:20:06.350Z,0.5
2023-01-04T03:21:05.579Z,0.5
2023-01-04T03:22:06.235Z,0
2023-01-04T03:23:06.502Z,0.5
2023-01-04T03:24:06.149Z,0.6
2023-01-04T03:25:06.303Z,0.6
2023-01-04T03:26:06.524Z,0.6
2023-01-04T03:27:06.062Z,0.6
2023-01-04T03:28:06.202Z,0.6
2023-01-04T03:29:06.368Z,0.6
2023-01-04T03:30:04.842Z,0.6
2023-01-04T03:31:05.529Z,0.6
2023-01-04T03:32:05.709Z,0.6
2023-01-04T03:33:05.865Z,0.7
2023-01-04T03:34:06.595Z,0.7
2023-01-04T03:35:06.032Z,0
2023-01-04T03:36:05.976Z,0
2023-01-04T03:37:06.121Z,0.7
2023-01-04T03:38:06.267Z,0.7
2023-01-04T03:39:06.588Z,0.7
2023-01-04T03:40:06.075Z,0.7
2023-01-04T03:41:05.611Z,0.8
2023-01-04T03:42:05.349Z,0.8
2023-01-04T03:43:05.194Z,0.8
2023-01-04T03:44:05.473Z,0.8
2023-01-04T03:45:12.762Z,0.8
2023-01-04T03:46:06.371Z,0.8
2023-01-04T03:47:06.854Z,0
2023-01-04T03:48:06.139Z,0.8
2023-01-04T03:49:05.885Z,0
2023-01-04T03:50:06.190Z,0.8
2023-01-04T03:51:05.810Z,0.8
2023-01-04T03:52:06.483Z,0.8
2023-01-04T03:53:06.452Z,0.8
2023-01-04T03:54:05.879Z,0.9
2023-01-04T03:55:05.780Z,0.9
2023-01-04T03:56:05.726Z,0.9
2023-01-04T03:57:06.084Z,0
2023-01-04T03:58:06.586Z,0.9
2023-01-04T03:59:06.283Z,0.9
2023-01-04T04:00:06.324Z,0.9
2023-01-04T04:01:05.014Z,0
2023-01-04T04:02:05.793Z,1
2023-01-04T04:03:06.035Z,1
2023-01-04T04:04:06.390Z,1
2023-01-04T04:05:06.018Z,1
2023-01-04T04:06:06.482Z,1
2023-01-04T04:07:06.249Z,1
2023-01-04T04:08:06.382Z,1.1
2023-01-04T04:09:06.684Z,1
2023-01-04T04:10:05.956Z,1
2023-01-04T04:11:06.231Z,1.1
2023-01-04T04:12:06.519Z,1.1
2023-01-04T04:13:05.321Z,1.1
2023-01-04T04:14:06.479Z,1.1
2023-01-04T04:15:06.591Z,1.1
2023-01-04T04:16:06.738Z,1.1
2023-01-04T04:17:06.598Z,1.2
2023-01-04T04:18:06.136Z,1.2
2023-01-04T04:19:12.302Z,1.2
2023-01-04T04:20:06.575Z,1.2
2023-01-04T04:21:06.114Z,1.2
2023-01-04T04:22:06.254Z,1.2
2023-01-04T04:23:05.673Z,1.2
2023-01-04T04:24:05.936Z,1.2
2023-01-04T04:25:06.208Z,1.2
2023-01-04T04:26:06.496Z,1.2
2023-01-04T04:27:06.245Z,1.2
2023-01-04T04:28:06.133Z,1.2
2023-01-04T04:29:05.018Z,1.2
2023-01-04T04:30:05.687Z,1.3
2023-01-04T04:31:05.651Z,1.3
2023-01-04T04:32:06.283Z,1.3
2023-01-04T04:33:06.347Z,1.3
2023-01-04T04:34:05.622Z,1.3
2023-01-04T04:35:05.922Z,1.3
2023-01-04T04:36:06.420Z,1.3
2023-01-04T04:37:06.328Z,1.3
2023-01-04T04:38:05.692Z,1.3
2023-01-04T04:39:06.097Z,1.3
2023-01-04T04:40:05.643Z,1.4
2023-01-04T04:41:05.772Z,1.4
2023-01-04T04:42:06.439Z,1.4
2023-01-04T04:43:06.528Z,1.4
2023-01-04T04:44:05.960Z,1.4
2023-01-04T04:45:06.085Z,1.4
2023-01-04T04:46:06.308Z,1.4
2023-01-04T04:47:06.220Z,1.4
2023-01-04T04:48:06.008Z,1.4
2023-01-04T04:49:05.919Z,1.4
2023-01-04T04:50:06.098Z,1.5
2023-01-04T04:51:06.216Z,1.5
2023-01-04T04:52:05.882Z,1.5
2023-01-04T04:53:06.015Z,1.5
2023-01-04T04:54:06.071Z,1.5
2023-01-04T04:55:06.297Z,1.5
2023-01-04T04:56:05.624Z,1
2023-01-04T04:57:05.126Z,1.5
2023-01-04T04:58:04.973Z,1.6
2023-01-04T04:59:06.155Z,1.6
2023-01-04T05:00:06.530Z,1.6
2023-01-04T05:01:06.852Z,1.6
2023-01-04T05:02:06.820Z,1.6
2023-01-04T05:03:06.166Z,1.6
2023-01-04T05:04:06.245Z,1.6
2023-01-04T05:05:06.316Z,1.6
2023-01-04T05:06:05.966Z,1.6
2023-01-04T05:07:14.920Z,1.6
2023-01-04T05:08:06.561Z,1.6
2023-01-04T05:09:05.848Z,1.6
2023-01-04T05:10:06.027Z,1.6
2023-01-04T05:11:05.700Z,1.6
2023-01-04T05:12:06.622Z,1.6
2023-01-04T05:13:04.632Z,1.6
2023-01-04T05:14:06.438Z,1.6
2023-01-04T05:15:06.478Z,1.6
2023-01-04T05:16:06.461Z,1.7
2023-01-04T05:17:06.793Z,1.7
2023-01-04T05:18:06.017Z,1.7
2023-01-04T05:19:05.940Z,1.7
2023-01-04T05:20:05.860Z,1
2023-01-04T05:21:06.107Z,1.7
2023-01-04T05:22:06.420Z,1.7
2023-01-04T05:23:06.181Z,1.7
2023-01-04T05:24:06.310Z,1.7
2023-01-04T05:25:05.917Z,1.7
2023-01-04T05:26:06.290Z,1.7
2023-01-04T05:27:06.223Z,1.8
2023-01-04T05:28:06.475Z,1.8
2023-01-04T05:29:06.085Z,1.8
2023-01-04T05:30:06.484Z,1.8
2023-01-04T05:31:05.852Z,1.8
2023-01-04T05:32:06.564Z,1
2023-01-04T05:33:05.814Z,1.8
2023-01-04T05:34:06.040Z,1.8
2023-01-04T05:35:05.847Z,1.8
2023-01-04T05:36:06.357Z,1.8
2023-01-04T05:37:06.752Z,1.8
2023-01-04T05:38:06.061Z,1.8
2023-01-04T05:39:06.163Z,1.9
2023-01-04T05:40:06.293Z,1.9
2023-01-04T05:41:06.450Z,1.9
2023-01-04T05:42:04.801Z,1.9
2023-01-04T05:43:06.395Z,2
2023-01-04T05:44:06.144Z,2
2023-01-04T05:45:06.492Z,1.9
2023-01-04T05:46:06.436Z,1.9
2023-01-04T05:47:15.005Z,1.9
2023-01-04T05:48:06.399Z,1.9
2023-01-04T05:49:05.632Z,2
2023-01-04T05:50:05.964Z,2
2023-01-04T05:51:06.176Z,2
2023-01-04T05:52:06.439Z,2
2023-01-04T05:53:06.039Z,2
2023-01-04T05:54:05.173Z,2
2023-01-04T05:55:06.134Z,2
2023-01-04T05:56:06.319Z,2
2023-01-04T05:57:05.884Z,2
2023-01-04T05:58:05.912Z,2
2023-01-04T05:59:05.625Z,2
2023-01-04T06:00:05.832Z,2
2023-01-04T06:01:06.296Z,2
2023-01-04T06:02:06.904Z,2.1
2023-01-04T06:03:07.142Z,2.1
2023-01-04T06:04:05.906Z,2.1
2023-01-04T06:05:05.991Z,2.2
2023-01-04T06:06:06.376Z,2.1
2023-01-04T06:07:06.634Z,2.2
2023-01-04T06:08:06.005Z,2.2
2023-01-04T06:09:05.756Z,2.2
2023-01-04T06:10:05.110Z,2.2
2023-01-04T06:11:05.720Z,2.2
2023-01-04T06:12:06.229Z,2.2
2023-01-04T06:13:06.554Z,2.2
2023-01-04T06:14:06.202Z,2.2
2023-01-04T06:15:06.741Z,2.2
2023-01-04T06:16:05.729Z,2.3
2023-01-04T06:17:06.492Z,2.3
2023-01-04T06:18:13.690Z,2
2023-01-04T06:19:05.865Z,2.3
2023-01-04T06:20:06.253Z,2.3
2023-01-04T06:21:06.288Z,2.3
2023-01-04T06:22:06.399Z,2.3
2023-01-04T06:23:06.223Z,2.3
2023-01-04T06:24:04.918Z,2.3
2023-01-04T06:25:05.696Z,2.3
2023-01-04T06:26:05.893Z,2.3
2023-01-04T06:27:06.080Z,2.3
2023-01-04T06:28:05.995Z,2.4
2023-01-04T06:29:06.394Z,2.4
2023-01-04T06:30:05.758Z,2.4
2023-01-04T06:31:06.313Z,2.4
2023-01-04T06:32:05.855Z,2.4
2023-01-04T06:33:06.182Z,2.4
2023-01-04T06:34:06.224Z,2.4
2023-01-04T06:35:06.040Z,2.4
2023-01-04T06:36:05.071Z,2.4
2023-01-04T06:37:05.900Z,2.4
2023-01-04T06:38:06.362Z,2.4
2023-01-04T06:39:06.170Z,2.4
2023-01-04T06:40:05.853Z,2.4
2023-01-04T06:41:06.560Z,2.4
2023-01-04T06:42:11.025Z,2
2023-01-04T06:43:05.850Z,2.4
2023-01-04T06:44:06.104Z,2.4
2023-01-04T06:45:05.899Z,2.4
2023-01-04T06:46:06.314Z,2.5
2023-01-04T06:47:06.136Z,2.4
2023-01-04T06:48:11.301Z,2.5
2023-01-04T06:49:06.019Z,2.5
2023-01-04T06:50:05.777Z,2.5
2023-01-04T06:51:05.713Z,2.5
2023-01-04T06:52:06.032Z,2.5
2023-01-04T06:53:06.449Z,2.5
2023-01-04T06:54:06.255Z,2.5
2023-01-04T06:55:06.320Z,2
2023-01-04T06:56:06.346Z,2.5
2023-01-04T06:57:05.931Z,2.5
2023-01-04T06:58:05.653Z,2.5
2023-01-04T06:59:06.052Z,2.5
2023-01-04T07:00:04.921Z,2.6
2023-01-04T07:01:06.719Z,2
2023-01-04T07:02:06.490Z,2.5
2023-01-04T07:03:19.710Z,2.6
2023-01-04T07:04:06.455Z,2.6
2023-01-04T07:05:06.526Z,2
2023-01-04T07:07:05.805Z,2.6
2023-01-04T07:08:12.180Z,2.6
2023-01-04T07:09:05.866Z,2.6
2023-01-04T07:10:13.338Z,2.6
2023-01-04T07:11:06.378Z,2.6
2023-01-04T07:12:06.017Z,2.6
2023-01-04T07:13:05.760Z,2.6
2023-01-04T07:14:04.747Z,2.6
2023-01-04T07:15:41.309Z,2.6
2023-01-04T07:16:06.203Z,2.6
2023-01-04T07:17:06.003Z,2.7
2023-01-04T07:18:05.828Z,2.6
2023-01-04T07:19:05.865Z,2.6
2023-01-04T07:20:06.128Z,2.7
2023-01-04T07:21:06.343Z,2.6
2023-01-04T07:22:06.640Z,2.6
2023-01-04T07:23:05.984Z,2.7
2023-01-04T07:24:06.148Z,2.7
2023-01-04T07:25:05.005Z,2.7
2023-01-04T07:26:06.576Z,2.7
2023-01-04T07:27:05.790Z,2.7
2023-01-04T07:28:05.820Z,2.7
2023-01-04T07:29:06.302Z,2
2023-01-04T07:30:06.649Z,2.7
2023-01-04T07:31:05.938Z,2.7
2023-01-04T07:32:13.759Z,2.7
2023-01-04T07:33:06.497Z,2.8
2023-01-04T07:34:05.801Z,2.8
2023-01-04T07:35:05.981Z,2.8
2023-01-04T07:36:06.431Z,2.8
2023-01-04T07:37:06.034Z,2.8
2023-01-04T07:38:06.216Z,2.8
2023-01-04T07:39:06.600Z,2.8
2023-01-04T07:40:06.641Z,2.8
2023-01-04T07:41:06.294Z,2.8
2023-01-04T07:42:06.211Z,2.8
2023-01-04T07:43:06.494Z,2.8
2023-01-04T07:44:05.770Z,2.8
2023-01-04T07:45:05.601Z,2.8
2023-01-04T07:46:06.102Z,3
2023-01-04T07:47:06.126Z,2.8
2023-01-04T07:48:05.697Z,2.8
2023-01-04T07:49:08.098Z,2.9
2023-01-04T07:50:06.161Z,2.8
2023-01-04T07:51:06.291Z,2.9
2023-01-04T07:52:05.849Z,2.9
2023-01-04T07:53:05.952Z,2.9
2023-01-04T07:54:06.063Z,2.9
2023-01-04T07:55:05.490Z,2.9
2023-01-04T07:56:06.203Z,3
2023-01-04T07:57:06.325Z,2.9
2023-01-04T07:58:05.738Z,3
2023-01-04T07:59:05.930Z,3
2023-01-04T08:00:05.353Z,3
2023-01-04T08:01:06.536Z,2.9
2023-01-04T08:02:06.418Z,3
2023-01-04T08:03:06.181Z,3
2023-01-04T08:04:06.188Z,3
2023-01-04T08:05:06.330Z,3.1
2023-01-04T08:06:06.357Z,3
2023-01-04T08:07:05.907Z,3.1
2023-01-04T08:08:06.224Z,3.1
2023-01-04T08:09:05.994Z,3.1
2023-01-04T08:10:06.199Z,3.2
2023-01-04T08:11:05.734Z,3.2
2023-01-04T08:12:04.840Z,3.1
2023-01-04T08:13:04.767Z,3.2
2023-01-04T08:14:05.935Z,3.2
2023-01-04T08:15:06.031Z,3.1
2023-01-04T08:16:05.957Z,3.1
2023-01-04T08:17:06.004Z,3.2
2023-01-04T08:18:07.122Z,3.2
2023-01-04T08:19:06.387Z,3.2
2023-01-04T08:20:06.594Z,3.2
2023-01-04T08:21:06.344Z,3.2
2023-01-04T08:22:06.677Z,3.2
2023-01-04T08:23:06.249Z,3.3
2023-01-04T08:24:06.322Z,3.2
2023-01-04T08:25:05.472Z,3.3
2023-01-04T08:26:06.022Z,3.4
2023-01-04T08:27:06.023Z,3.4
2023-01-04T08:28:06.496Z,3.4
2023-01-04T08:29:06.618Z,3.4
2023-01-04T08:30:06.688Z,3.4
2023-01-04T08:31:06.481Z,3.5
2023-01-04T08:32:06.714Z,4
2023-01-04T08:33:05.740Z,3.6
2023-01-04T08:34:05.995Z,3.6
2023-01-04T08:35:05.635Z,3.7
2023-01-04T08:36:06.022Z,3.7
2023-01-04T08:37:06.284Z,3.8
2023-01-04T08:39:02.394Z,3.9
2023-01-04T08:39:06.774Z,3.9
2023-01-04T08:40:06.400Z,4
2023-01-04T08:42:02.872Z,4
2023-01-04T08:42:30.903Z,4
2023-01-04T08:44:06.233Z,4
2023-01-04T08:45:06.503Z,4
2023-01-04T08:46:06.229Z,4
2023-01-04T08:47:06.919Z,4
2023-01-04T08:48:06.482Z,4
2023-01-04T08:49:05.872Z,4
2023-01-04T08:50:14.139Z,4.1
2023-01-04T08:51:06.517Z,4.1
2023-01-04T08:52:05.880Z,4.3
2023-01-04T08:53:06.183Z,4.4
2023-01-04T08:54:06.364Z,4.4
2023-01-04T08:55:17.807Z,4.5
2023-01-04T08:56:06.480Z,4.6
2023-01-04T08:57:05.794Z,4.7
2023-01-04T08:58:05.526Z,4.8
2023-01-04T08:59:05.987Z,4.8
2023-01-04T09:00:06.495Z,4.9
2023-01-04T09:01:05.571Z,5
2023-01-04T09:02:10.172Z,5.1
2023-01-04T09:03:07.064Z,5.2
2023-01-04T09:04:06.763Z,5.3
2023-01-04T09:05:06.969Z,5.4
2023-01-04T09:06:05.955Z,5.4
2023-01-04T09:07:06.027Z,5.5
2023-01-04T09:08:06.208Z,5.6
2023-01-04T09:09:06.235Z,5.8
2023-01-04T09:10:06.492Z,5.8
2023-01-04T09:11:05.595Z,6
2023-01-04T09:12:05.029Z,6
2023-01-04T09:13:06.171Z,6.2
2023-01-04T09:14:12.164Z,6.3
2023-01-04T09:15:05.700Z,4
2023-01-04T09:16:06.574Z,4
2023-01-04T09:17:06.509Z,6.6
2023-01-04T09:18:35.823Z,6.6
2023-01-04T09:19:05.931Z,5
2023-01-04T09:20:05.888Z,5
2023-01-04T09:21:06.131Z,7
2023-01-04T09:22:06.852Z,7
2023-01-04T09:23:05.751Z,7
2023-01-04T09:24:05.982Z,7
2023-01-04T09:25:06.177Z,7.1
2023-01-04T09:26:09.399Z,7
2023-01-04T09:27:04.457Z,7
2023-01-04T09:28:06.364Z,6.9
2023-01-04T09:29:05.471Z,7
2023-01-04T09:30:05.681Z,6.9
2023-01-04T09:31:06.004Z,6.9
2023-01-04T09:32:09.088Z,6.9
2023-01-04T09:33:04.675Z,6.9
2023-01-04T09:34:15.023Z,7
2023-01-04T09:35:06.439Z,7.1
2023-01-04T09:36:05.940Z,7.2
2023-01-04T09:37:06.179Z,7.2
2023-01-04T09:38:05.719Z,7.3
2023-01-04T09:39:06.052Z,5
2023-01-04T09:40:06.231Z,7.4
2023-01-04T09:41:05.022Z,7.5
2023-01-04T09:42:05.883Z,7.5
2023-01-04T09:43:19.785Z,7.5
2023-01-04T09:44:06.277Z,7.6
2023-01-04T09:45:23.437Z,7.6
2023-01-04T09:46:06.519Z,7.5
2023-01-04T09:47:05.772Z,7.5
2023-01-04T09:48:05.971Z,7.6
2023-01-04T09:49:06.109Z,7.6
2023-01-04T09:50:06.355Z,6
2023-01-04T09:51:05.499Z,7.6
2023-01-04T09:52:05.733Z,7.6
2023-01-04T09:53:05.862Z,7.6
2023-01-04T09:54:06.161Z,6
2023-01-04T09:55:36.589Z,7.6
2023-01-04T09:56:04.894Z,7.6
2023-01-04T09:57:06.026Z,7.6
2023-01-04T09:58:05.562Z,7.6
2023-01-04T09:59:05.851Z,7.6
2023-01-04T10:00:05.854Z,7.6
2023-01-04T10:01:05.766Z,7.6
2023-01-04T10:02:06.209Z,7.6
2023-01-04T10:03:06.385Z,6
2023-01-04T10:04:06.264Z,7.6
2023-01-04T10:05:05.603Z,6
2023-01-04T10:06:06.103Z,7.5
2023-01-04T10:07:05.302Z,7.5
2023-01-04T10:08:06.164Z,6
2023-01-04T10:09:05.862Z,7.5
2023-01-04T10:10:05.706Z,7.5
2023-01-04T10:11:05.941Z,7.5
2023-01-04T10:12:06.160Z,7.5
2023-01-04T10:13:05.385Z,7.5
2023-01-04T10:14:05.747Z,6
2023-01-04T10:15:06.320Z,6
2023-01-04T10:16:05.829Z,7.4
2023-01-04T10:17:15.266Z,7.4
2023-01-04T10:19:50.752Z,7.4
2023-01-04T10:21:31.818Z,7.4
2023-01-04T10:22:06.360Z,7.4
2023-01-04T10:23:05.774Z,7.4
2023-01-04T10:24:06.154Z,7.4
2023-01-04T10:25:06.477Z,7.4
2023-01-04T10:26:05.717Z,7.4
2023-01-04T10:27:05.973Z,7.4
2023-01-04T10:28:05.982Z,7.5
2023-01-04T10:29:06.315Z,7.4
2023-01-04T10:30:05.594Z,7.4
2023-01-04T10:31:38.351Z,7.4
2023-01-04T10:32:05.793Z,7.4
2023-01-04T10:33:06.210Z,7.4
2023-01-04T10:34:06.229Z,7.4
2023-01-04T10:35:04.549Z,7.4
2023-01-04T10:36:06.156Z,7.5
2023-01-04T10:37:05.855Z,7.4
2023-01-04T10:38:06.261Z,7.4
2023-01-04T10:39:05.452Z,7.5
2023-01-04T10:40:06.177Z,7.5
2023-01-04T10:41:06.193Z,7.5
2023-01-04T10:42:06.090Z,7.5
2023-01-04T10:43:06.299Z,7.5
2023-01-04T10:44:10.219Z,7.5
2023-01-04T10:45:09.041Z,7.5
2023-01-04T10:46:05.699Z,7.5
2023-01-04T10:47:06.295Z,7.5
2023-01-04T10:48:05.160Z,7.5
2023-01-04T10:49:05.566Z,7.5
2023-01-04T10:50:05.889Z,7.5
2023-01-04T10:51:10.073Z,7.5
2023-01-04T10:52:06.469Z,7.6
2023-01-04T10:53:05.641Z,7.6
2023-01-04T10:54:05.926Z,7
2023-01-04T10:55:05.714Z,7.6
2023-01-04T10:56:24.636Z,7.6
2023-01-04T10:57:07.058Z,7.6
2023-01-04T10:58:06.255Z,7.6
2023-01-04T10:59:06.432Z,7
2023-01-04T11:00:05.773Z,7.6
2023-01-04T11:01:06.356Z,7.7
2023-01-04T11:02:05.796Z,7.7
2023-01-04T11:03:08.997Z,7.8
2023-01-04T11:04:05.978Z,7.7
2023-01-04T11:05:06.191Z,7.8
2023-01-04T11:06:05.758Z,7.8
2023-01-04T11:07:06.032Z,7.8
2023-01-04T11:08:05.683Z,7.8
2023-01-04T11:09:05.888Z,7.8
2023-01-04T11:10:05.392Z,7.8
2023-01-04T11:11:05.092Z,7.8
2023-01-04T11:12:06.301Z,7
2023-01-04T11:13:05.441Z,7.8
2023-01-04T11:14:05.759Z,7.8
2023-01-04T11:15:05.637Z,7.8
2023-01-04T11:16:06.193Z,7.8
2023-01-04T11:17:06.356Z,7.8
2023-01-04T11:18:06.013Z,7.8
2023-01-04T11:19:06.153Z,7.8
2023-01-04T11:20:06.074Z,7.8
2023-01-04T11:21:06.322Z,7.8
2023-01-04T11:22:05.447Z,7.9
2023-01-04T11:23:05.615Z,7.9
2023-01-04T11:24:22.342Z,8
2023-01-04T11:25:34.276Z,7.9
2023-01-04T11:26:06.044Z,7.9
2023-01-04T11:27:06.293Z,7.9
2023-01-04T11:28:05.536Z,7.9
2023-01-04T11:29:05.345Z,7.9
2023-01-04T11:30:05.849Z,7.9
2023-01-04T11:31:06.085Z,7.9
2023-01-04T11:32:05.616Z,8
2023-01-04T11:33:05.695Z,7.9
2023-01-04T11:34:05.954Z,8
2023-01-04T11:35:05.571Z,8
2023-01-04T11:36:05.852Z,8
2023-01-04T11:37:05.839Z,8
2023-01-04T11:38:06.159Z,8
2023-01-04T11:39:05.795Z,8
2023-01-04T11:40:05.258Z,8
2023-01-04T11:41:04.810Z,8
2023-01-04T11:42:05.925Z,8
2023-01-04T11:43:06.301Z,8
2023-01-04T11:44:06.470Z,8
2023-01-04T11:45:05.848Z,8
2023-01-04T11:46:06.508Z,8
2023-01-04T11:47:05.754Z,8.1
2023-01-04T11:48:10.831Z,8.1
2023-01-04T11:49:06.159Z,8.1
2023-01-04T11:50:05.714Z,8.1
2023-01-04T11:51:06.102Z,8.2
2023-01-04T11:52:06.277Z,8.1
2023-01-04T11:53:05.535Z,8.2
2023-01-04T11:54:05.827Z,8.2
2023-01-04T11:55:05.460Z,8.2
2023-01-04T11:56:05.791Z,8.2
2023-01-04T11:57:11.310Z,8.2
2023-01-04T11:58:05.969Z,8.2
2023-01-04T11:59:05.560Z,8.2
2023-01-04T12:00:06.163Z,8
2023-01-04T12:01:05.375Z,8.3
2023-01-04T12:02:05.957Z,8
2023-01-04T12:03:05.578Z,8.4
2023-01-04T12:04:05.792Z,8.4
2023-01-04T12:05:04.897Z,8.4
2023-01-04T12:06:05.532Z,8.4
2023-01-04T12:07:05.589Z,8.4
2023-01-04T12:08:06.165Z,8.4
2023-01-04T12:09:05.524Z,8.4
2023-01-04T12:10:05.499Z,8.4
2023-01-04T12:11:05.671Z,8
2023-01-04T12:12:08.667Z,8.4
2023-01-04T12:13:06.163Z,8.4
2023-01-04T12:14:05.947Z,8.4
2023-01-04T12:15:06.322Z,8.5
2023-01-04T12:16:04.975Z,8.5
2023-01-04T12:17:05.022Z,8.4
2023-01-04T12:18:06.054Z,8.4
2023-01-04T12:19:05.609Z,8.4
2023-01-04T12:20:05.858Z,8.4
2023-01-04T12:21:06.273Z,8.4
2023-01-04T12:22:05.658Z,8.4
2023-01-04T12:23:05.929Z,8.4
2023-01-04T12:24:06.239Z,8.4
2023-01-04T12:25:06.006Z,8.4
2023-01-04T12:26:05.536Z,8.4
2023-01-04T12:27:05.903Z,8.4
2023-01-04T12:28:04.322Z,8.4
2023-01-04T12:29:05.755Z,8.4
2023-01-04T12:30:06.187Z,8.4
2023-01-04T12:31:06.015Z,8.4
2023-01-04T12:32:04.847Z,8.4
2023-01-04T12:33:06.476Z,8.5
2023-01-04T12:34:05.868Z,8.4
2023-01-04T12:35:06.068Z,8.5
2023-01-04T12:36:06.536Z,9
2023-01-04T12:37:10.051Z,9
2023-01-04T12:38:06.534Z,9
2023-01-04T12:39:06.023Z,8.5
2023-01-04T12:40:06.439Z,8.5
2023-01-04T12:41:06.582Z,8.6
2023-01-04T12:42:05.928Z,8.6
2023-01-04T12:43:06.185Z,9
2023-01-04T12:44:06.371Z,8.5
2023-01-04T12:45:06.334Z,8.6
2023-01-04T12:46:05.702Z,8.6
2023-01-04T12:47:05.429Z,8.6
2023-01-04T12:48:06.329Z,8.6
2023-01-04T12:49:06.034Z,8.6
2023-01-04T12:50:06.171Z,8.6
2023-01-04T12:51:37.150Z,8.6
2023-01-04T12:53:19.815Z,8.6
2023-01-04T12:53:33.422Z,8.6
2023-01-04T12:55:06.505Z,8.6
2023-01-04T12:56:06.217Z,8.6
2023-01-04T12:57:06.479Z,8.6
2023-01-04T12:58:06.096Z,9
2023-01-04T12:59:34.948Z,8.6
2023-01-04T13:00:06.122Z,9
2023-01-04T13:01:06.297Z,8.7
2023-01-04T13:02:06.917Z,8.6
2023-01-04T13:03:06.747Z,8.6
2023-01-04T13:04:10.322Z,8.6
2023-01-04T13:06:04.530Z,8.6
2023-01-04T13:06:06.531Z,8.6
2023-01-04T13:07:06.359Z,8.6
2023-01-04T13:08:06.162Z,8.6
2023-01-04T13:09:06.288Z,8.6
2023-01-04T13:10:06.487Z,9
2023-01-04T13:11:05.573Z,8.7
2023-01-04T13:12:06.374Z,8.7
2023-01-04T13:13:06.174Z,8.7
2023-01-04T13:14:05.668Z,8.7
2023-01-04T13:15:05.988Z,8.7
2023-01-04T13:16:05.950Z,8.8
2023-01-04T13:17:06.435Z,8.8
2023-01-04T13:18:05.673Z,8.8
2023-01-04T13:19:06.506Z,8.8
2023-01-04T13:20:05.864Z,8.8
2023-01-04T13:21:06.493Z,8.8
2023-01-04T13:22:05.954Z,8.9
2023-01-04T13:23:05.640Z,8.9
2023-01-04T13:24:06.090Z,8.8
2023-01-04T13:25:06.066Z,8.8
2023-01-04T13:26:06.383Z,8.8
2023-01-04T13:27:05.587Z,8.9
2023-01-04T13:28:06.317Z,8.9
2023-01-04T13:29:06.469Z,8.9
2023-01-04T13:30:06.644Z,8.9
2023-01-04T13:31:06.954Z,9
2023-01-04T13:32:05.912Z,8.9
2023-01-04T13:33:31.208Z,9
2023-01-04T13:34:06.113Z,9
2023-01-04T13:35:15.743Z,9
2023-01-04T13:36:06.030Z,9
2023-01-04T13:37:06.252Z,9
2023-01-04T13:38:06.490Z,9
2023-01-04T13:39:06.710Z,9
2023-01-04T13:40:06.309Z,8.9
2023-01-04T13:41:06.453Z,9
2023-01-04T13:42:06.519Z,8.9
2023-01-04T13:43:05.738Z,8.9
2023-01-04T13:44:06.019Z,9
2023-01-04T13:45:24.399Z,9
2023-01-04T13:46:10.708Z,9
2023-01-04T13:47:06.305Z,9
2023-01-04T13:48:05.631Z,8.9
2023-01-04T13:49:05.255Z,9
2023-01-04T13:50:05.641Z,9
2023-01-04T13:51:06.517Z,9
2023-01-04T13:53:07.327Z,9
2023-01-04T13:53:12.207Z,9
2023-01-04T13:54:05.950Z,9
2023-01-04T13:55:06.064Z,9
2023-01-04T13:56:06.036Z,9
2023-01-04T13:57:06.054Z,9
2023-01-04T13:58:06.478Z,8.9
2023-01-04T13:59:05.866Z,9
2023-01-04T14:00:06.137Z,9
2023-01-04T14:01:06.779Z,9
2023-01-04T14:02:06.271Z,8.9
2023-01-04T14:03:06.473Z,8.9
2023-01-04T14:04:06.591Z,9